Rijkevorsel, Belgium
Current Conditions -  °F | °C
As of 11:55 AM on Monday 20 Oct 2014 (Local Time) from EHGR Reporting Station
Overcast Overcast  
Wind Chill: 61°   Ceiling: 2000
Heat Index: 61°   Visibility: 6mi
Dew Point: 54°   Wind: 12mph
Humidity: 77%   Direction: 250°WSW
Pressure: 30.03"   Gusts: NA
Location:  51.35°N, 4.76°E
Report Text: EHGR 200955Z AUTO 25010KT 9999 SCT017 BKN020 OVC023 16/12 Q1017 WHT 23010KT 9999 FEW015 BKN025
Loading
Personal Weather Stations






























Interactive Weather Map
Tropical Storm Tracking
New forecast layout! Learn more

10-Day Weather Forecast

Advertisements
Track Severe Weather on mobile